Time;durP1;ratioP1;P1;durP2;ratioP2;P2;SDS_P1;SDS_P2;PMS_P1;PMS_P2;Temp;Humidity;BMP_temperature;BMP_pressure;BME280_temperature;BME280_humidity;BME280_pressure;Samples;Min_cycle;Max_cycle;Signal;HPM_P1;HPM_P2
2022/02/25 00:02:19;;;;;;;;;;;4.20;99.90;;;;;;4973946;28;20022;-78
2022/02/25 00:04:44;;;;;;;17.08;6.78;;;4.20;99.90;;;;;;4973306;28;19917;-80
2022/02/25 00:07:10;;;;;;;13.40;4.68;;;4.10;99.90;;;;;;4973356;28;20034;-78
2022/02/25 00:09:36;;;;;;;13.05;4.93;;;4.00;99.90;;;;;;4973971;28;20484;-78
2022/02/25 00:12:02;;;;;;;13.88;4.13;;;4.00;99.90;;;;;;4975618;28;20023;-78
2022/02/25 00:14:28;;;;;;;;;;;4.00;99.90;;;;;;4977553;28;20408;-79
2022/02/25 00:16:53;;;;;;;13.23;4.32;;;4.00;99.90;;;;;;4977773;28;19945;-78
2022/02/25 00:19:19;;;;;;;18.00;3.83;;;3.90;99.90;;;;;;4975558;28;20101;-79
2022/02/25 00:21:45;;;;;;;;;;;3.90;99.90;;;;;;4978465;28;20098;-79
2022/02/25 00:24:11;;;;;;;15.40;3.88;;;3.80;99.90;;;;;;4981213;28;19917;-79
2022/02/25 00:26:37;;;;;;;12.15;4.00;;;3.80;99.90;;;;;;4984903;28;20030;-79
2022/02/25 00:29:04;;;;;;;15.10;4.03;;;3.80;99.90;;;;;;4978245;28;20169;-78
2022/02/25 00:31:30;;;;;;;19.90;5.40;;;3.80;99.90;;;;;;4973945;28;20042;-78
2022/02/25 00:33:55;;;;;;;8.80;3.67;;;3.90;99.90;;;;;;4973753;28;20030;-78
2022/02/25 00:36:21;;;;;;;;;;;3.80;99.90;;;;;;4973530;28;20408;-78
2022/02/25 00:38:46;;;;;;;14.18;4.20;;;3.80;99.90;;;;;;4973353;28;19917;-78
2022/02/25 00:41:12;;;;;;;13.38;4.05;;;3.80;99.90;;;;;;4977901;28;20039;-79
2022/02/25 00:43:38;;;;;;;19.77;4.82;;;3.80;99.90;;;;;;4977959;28;20113;-78
2022/02/25 00:46:03;;;;;;;7.97;3.63;;;3.80;99.90;;;;;;4973545;28;20089;-78
2022/02/25 00:48:29;;;;;;;;;;;3.80;99.90;;;;;;4972232;28;20042;-78
2022/02/25 00:50:54;;;;;;;8.43;3.05;;;3.70;99.90;;;;;;4974053;28;19910;-79
2022/02/25 00:53:20;;;;;;;;;;;3.60;99.90;;;;;;4978805;28;20551;-80
2022/02/25 00:55:46;;;;;;;13.27;3.40;;;3.60;99.90;;;;;;4971015;28;20678;-76
2022/02/25 00:58:11;;;;;;;;;;;3.60;99.90;;;;;;4972383;28;20038;-78
2022/02/25 01:00:37;;;;;;;14.55;4.55;;;3.50;99.90;;;;;;4970256;28;19958;-78
2022/02/25 01:03:02;;;;;;;;;;;3.50;99.90;;;;;;4971234;28;20026;-77
2022/02/25 01:05:28;;;;;;;11.05;3.45;;;3.60;99.90;;;;;;4971465;28;19917;-76
2022/02/25 01:07:54;;;;;;;10.13;3.55;;;3.50;99.90;;;;;;4970493;28;20041;-77
2022/02/25 01:10:20;;;;;;;9.40;2.97;;;3.50;99.90;;;;;;4972145;28;20035;-77
2022/02/25 01:12:47;;;;;;;9.60;3.85;;;3.50;99.90;;;;;;4972029;28;20377;-77
2022/02/25 01:15:13;;;;;;;15.25;3.08;;;3.40;99.90;;;;;;4971562;28;20035;-77
2022/02/25 01:17:40;;;;;;;11.40;3.53;;;3.40;99.90;;;;;;4970287;28;20553;-77
2022/02/25 01:20:06;;;;;;;;;;;3.40;99.90;;;;;;4975646;28;20113;-79
2022/02/25 01:22:33;;;;;;;24.83;5.10;;;3.40;99.90;;;;;;4975486;28;19910;-79
2022/02/25 01:24:59;;;;;;;21.27;7.15;;;3.40;99.90;;;;;;4975071;28;20067;-79
2022/02/25 01:27:25;;;;;;;17.70;4.25;;;3.40;99.90;;;;;;4975819;28;20074;-78
2022/02/25 01:29:50;;;;;;;14.73;5.25;;;3.30;99.90;;;;;;4976049;28;20089;-79
2022/02/25 01:32:16;;;;;;;;;;;3.20;99.90;;;;;;4976784;28;20089;-79
2022/02/25 01:34:42;;;;;;;16.70;5.88;;;3.20;99.90;;;;;;4977160;28;19910;-79
2022/02/25 01:37:08;;;;;;;17.85;5.40;;;3.10;99.90;;;;;;4977456;28;20450;-79
2022/02/25 01:39:33;;;;;;;;;;;3.10;99.90;;;;;;4978347;28;20492;-77
2022/02/25 01:41:59;;;;;;;22.45;7.68;;;3.00;99.90;;;;;;4975274;28;19921;-78
2022/02/25 01:44:26;;;;;;;;;;;3.10;99.90;;;;;;4979938;28;20133;-79
2022/02/25 01:46:55;;;;;;;7.40;3.67;;;2.90;99.90;;;;;;4964225;28;20053;-80
2022/02/25 01:49:22;;;;;;;9.77;3.80;;;2.80;99.90;;;;;;4981430;28;20848;-79
2022/02/25 01:51:48;;;;;;;10.93;4.22;;;2.90;99.90;;;;;;4979507;28;20027;-78
2022/02/25 01:54:15;;;;;;;15.13;6.20;;;2.70;99.90;;;;;;4981159;28;20091;-79
2022/02/25 01:56:42;;;;;;;18.40;6.10;;;2.70;99.90;;;;;;4979282;28;20113;-79
2022/02/25 01:59:08;;;;;;;14.82;6.07;;;2.60;99.90;;;;;;4980441;28;20062;-80
2022/02/25 02:01:34;;;;;;;16.40;6.05;;;2.50;99.90;;;;;;4979663;28;20031;-80
2022/02/25 02:04:01;;;;;;;14.70;6.35;;;2.50;99.90;;;;;;4979613;28;20035;-79
2022/02/25 02:06:28;;;;;;;17.98;6.38;;;2.40;99.90;;;;;;4976771;28;20035;-79
2022/02/25 02:08:54;;;;;;;14.55;5.47;;;2.30;99.90;;;;;;4979252;28;20019;-78
2022/02/25 02:11:30;;;;;;;;;;;2.20;99.90;;;;;;4978194;28;20040;-79
2022/02/25 02:13:57;;;;;;;15.25;4.10;;;2.30;99.90;;;;;;4978384;28;20334;-78
2022/02/25 02:16:24;;;;;;;8.90;3.53;;;2.50;99.90;;;;;;4979570;28;20027;-78
2022/02/25 02:18:49;;;;;;;12.13;3.50;;;2.70;99.90;;;;;;4978284;28;20492;-79
2022/02/25 02:21:16;;;;;;;9.05;3.50;;;2.60;99.90;;;;;;4979237;28;20033;-79
2022/02/25 02:23:43;;;;;;;8.88;3.30;;;2.60;99.90;;;;;;4977877;28;20396;-78
2022/02/25 02:26:09;;;;;;;12.85;2.97;;;2.70;99.90;;;;;;4977770;28;20045;-77
2022/02/25 02:28:34;;;;;;;12.75;4.03;;;2.60;99.90;;;;;;4977887;28;20039;-78
2022/02/25 02:31:00;;;;;;;;;;;2.60;99.90;;;;;;4978401;28;20041;-79
2022/02/25 02:33:25;;;;;;;15.38;6.35;;;2.40;99.90;;;;;;4977057;28;19906;-77
2022/02/25 02:35:51;;;;;;;;;;;2.30;99.90;;;;;;4977570;28;20487;-78
2022/02/25 02:38:17;;;;;;;17.88;5.18;;;2.30;99.90;;;;;;4976662;28;19961;-78
2022/02/25 02:40:42;;;;;;;;;;;2.20;99.90;;;;;;4975894;28;20047;-78
2022/02/25 02:43:10;;;;;;;18.35;6.03;;;2.00;99.90;;;;;;4974392;28;20303;-77
2022/02/25 02:45:37;;;;;;;15.52;4.80;;;2.00;99.90;;;;;;4976326;28;20058;-78
2022/02/25 02:48:03;;;;;;;16.70;4.35;;;1.90;99.90;;;;;;4974837;28;20134;-78
2022/02/25 02:50:30;;;;;;;11.52;3.63;;;1.80;99.90;;;;;;4974851;28;20084;-78
2022/02/25 02:52:56;;;;;;;13.82;4.97;;;1.80;99.90;;;;;;4975310;28;20027;-78
2022/02/25 02:55:22;;;;;;;;;;;1.60;99.90;;;;;;4976310;28;20042;-78
2022/02/25 02:57:49;;;;;;;14.27;4.30;;;1.60;99.90;;;;;;4973822;28;19910;-77
2022/02/25 03:00:15;;;;;;;10.27;4.10;;;1.60;99.90;;;;;;4976714;28;20027;-77
2022/02/25 03:02:40;;;;;;;;;;;1.60;99.90;;;;;;4976169;28;20134;-77
2022/02/25 03:05:07;;;;;;;18.27;5.45;;;1.60;99.90;;;;;;4982531;28;19948;-78
2022/02/25 03:07:33;;;;;;;14.77;5.05;;;1.70;99.90;;;;;;4981733;28;20068;-77
2022/02/25 03:09:59;;;;;;;;;;;1.90;99.90;;;;;;4973866;28;20456;-78
2022/02/25 03:12:24;;;;;;;13.40;4.40;;;2.00;99.90;;;;;;4972058;28;20428;-79
2022/02/25 03:14:50;;;;;;;11.77;4.95;;;2.10;99.90;;;;;;4971830;28;20039;-78
2022/02/25 03:17:16;;;;;;;11.02;4.07;;;2.20;99.90;;;;;;4973143;28;20854;-78
2022/02/25 03:19:42;;;;;;;;;;;2.20;99.90;;;;;;4972823;28;20027;-81
2022/02/25 03:22:07;;;;;;;13.75;4.22;;;2.30;99.90;;;;;;4973293;28;19932;-78
2022/02/25 03:24:33;;;;;;;;;;;2.40;99.90;;;;;;4975513;28;20034;-79
2022/02/25 03:26:58;;;;;;;9.68;3.50;;;2.40;99.90;;;;;;4974656;28;19981;-78
2022/02/25 03:29:24;;;;;;;;;;;2.50;99.90;;;;;;4973547;28;20447;-78
2022/02/25 03:31:49;;;;;;;12.35;3.15;;;2.50;99.90;;;;;;4975375;28;20537;-79
2022/02/25 03:34:15;;;;;;;15.93;3.38;;;2.60;99.90;;;;;;4975030;28;20097;-77
2022/02/25 03:36:41;;;;;;;9.77;3.58;;;2.60;99.90;;;;;;4973585;28;20037;-79
2022/02/25 03:39:06;;;;;;;;;;;2.60;99.90;;;;;;4975740;28;20159;-78
2022/02/25 03:41:32;;;;;;;10.63;3.20;;;2.60;99.90;;;;;;4973808;28;19981;-78
2022/02/25 03:43:58;;;;;;;;;;;2.60;99.90;;;;;;4974676;28;20050;-79
2022/02/25 03:46:24;;;;;;;10.93;2.83;;;2.60;99.90;;;;;;4974317;28;19918;-78
2022/02/25 03:48:50;;;;;;;15.27;2.90;;;2.60;99.90;;;;;;4975514;28;20032;-78
2022/02/25 03:51:17;;;;;;;14.57;3.15;;;2.60;99.90;;;;;;4973715;28;20069;-79
2022/02/25 03:53:42;;;;;;;16.05;3.13;;;2.70;99.90;;;;;;4974483;28;20062;-79
2022/02/25 03:56:08;;;;;;;;;;;2.80;99.90;;;;;;4974184;28;20031;-79
2022/02/25 03:58:34;;;;;;;12.55;3.55;;;2.90;99.90;;;;;;4975326;28;20025;-78
2022/02/25 04:00:59;;;;;;;;;;;2.90;99.90;;;;;;4975664;28;20062;-78
2022/02/25 04:03:25;;;;;;;11.52;3.08;;;3.00;99.90;;;;;;4974127;28;19917;-77
2022/02/25 04:05:51;;;;;;;16.45;3.70;;;3.10;99.90;;;;;;4974031;28;20039;-78
2022/02/25 04:08:16;;;;;;;11.90;3.17;;;3.20;99.90;;;;;;4975106;28;20042;-78
2022/02/25 04:10:42;;;;;;;14.55;3.15;;;3.30;99.90;;;;;;4973610;28;20030;-78
2022/02/25 04:13:08;;;;;;;;;;;3.30;99.90;;;;;;4974026;28;20039;-79
2022/02/25 04:15:33;;;;;;;11.98;3.80;;;3.20;99.90;;;;;;4973491;28;19910;-78
2022/02/25 04:17:59;;;;;;;;;;;3.30;99.90;;;;;;4974526;28;20605;-79
2022/02/25 04:20:26;;;;;;;14.85;3.67;;;3.20;99.90;;;;;;4975826;28;20026;-78
2022/02/25 04:22:52;;;;;;;9.27;3.20;;;3.10;99.90;;;;;;4975706;28;20488;-78
2022/02/25 04:25:18;;;;;;;13.27;3.22;;;3.10;99.90;;;;;;4973908;28;20030;-78
2022/02/25 04:27:44;;;;;;;;;;;3.10;99.90;;;;;;4973904;28;20043;-78
2022/02/25 04:30:11;;;;;;;12.32;3.78;;;3.10;99.90;;;;;;4974279;28;19910;-78
2022/02/25 04:32:36;;;;;;;11.02;3.88;;;3.10;99.90;;;;;;4974258;28;20042;-78
2022/02/25 04:35:03;;;;;;;13.15;4.45;;;3.10;99.90;;;;;;4974723;28;20038;-78
2022/02/25 04:37:30;;;;;;;14.88;4.15;;;3.00;99.90;;;;;;4974554;28;20041;-78
2022/02/25 04:39:56;;;;;;;14.65;4.57;;;3.00;99.90;;;;;;4976229;28;20030;-79
2022/02/25 04:42:25;;;;;;;11.85;3.85;;;3.00;99.90;;;;;;4973669;28;20027;-78
2022/02/25 04:44:51;;;;;;;8.48;2.97;;;3.00;99.90;;;;;;4975856;28;20051;-79
2022/02/25 04:47:16;;;;;;;12.45;3.78;;;3.00;99.90;;;;;;4974319;28;20053;-79
2022/02/25 04:49:42;;;;;;;;;;;2.90;99.90;;;;;;4976852;28;20041;-79
2022/02/25 04:52:09;;;;;;;10.15;3.70;;;2.90;99.90;;;;;;4974410;28;19957;-78
2022/02/25 04:54:34;;;;;;;19.40;6.90;;;2.90;99.90;;;;;;4974796;28;20038;-79
2022/02/25 04:57:00;;;;;;;27.67;9.32;;;2.90;99.90;;;;;;4975782;28;20022;-79
2022/02/25 04:59:26;;;;;;;;;;;2.80;99.90;;;;;;4974642;28;20035;-78
2022/02/25 05:01:52;;;;;;;26.23;11.18;;;2.80;99.90;;;;;;4975439;28;20328;-79
2022/02/25 05:04:17;;;;;;;;;;;2.70;99.90;;;;;;4975580;28;20042;-78
2022/02/25 05:06:43;;;;;;;9.02;3.47;;;2.70;99.90;;;;;;4977809;28;19918;-78
2022/02/25 05:09:08;;;;;;;12.93;3.97;;;2.80;99.90;;;;;;4979588;28;20030;-78
2022/02/25 05:11:34;;;;;;;10.70;4.30;;;2.90;99.90;;;;;;4977476;28;20070;-78
2022/02/25 05:14:02;;;;;;;10.23;2.97;;;2.90;99.90;;;;;;4978803;28;20022;-78
2022/02/25 05:21:56;;;;;;;25.58;11.38;;;3.10;99.90;;;;;;4978247;28;20677;-78
2022/02/25 05:24:22;;;;;;;18.17;7.72;;;3.10;99.90;;;;;;4977913;28;20027;-79
2022/02/25 05:26:47;;;;;;;12.30;4.00;;;3.00;99.90;;;;;;4977154;28;20039;-78
2022/02/25 05:29:13;;;;;;;;;;;3.00;99.90;;;;;;4977556;28;20027;-78
2022/02/25 05:31:39;;;;;;;14.00;3.15;;;2.90;99.90;;;;;;4978413;28;19917;-79
2022/02/25 05:34:05;;;;;;;16.52;3.83;;;3.00;99.90;;;;;;4978182;28;20031;-78
2022/02/25 05:36:30;;;;;;;10.52;3.25;;;3.00;99.90;;;;;;4976161;28;20046;-78
2022/02/25 05:38:56;;;;;;;;;;;3.20;99.90;;;;;;4978452;28;20058;-78
2022/02/25 05:41:22;;;;;;;16.20;3.15;;;3.30;99.90;;;;;;4985055;28;19906;-79
2022/02/25 05:43:48;;;;;;;;;;;3.50;99.90;;;;;;4988346;28;20039;-79
2022/02/25 05:46:15;;;;;;;9.13;3.40;;;3.50;99.90;;;;;;4976720;28;19918;-78
2022/02/25 05:48:41;;;;;;;16.05;3.50;;;3.70;99.90;;;;;;4976476;28;20030;-78
2022/02/25 05:51:06;;;;;;;16.30;4.53;;;3.80;99.90;;;;;;4974637;28;20038;-78
2022/02/25 05:53:32;;;;;;;10.77;3.53;;;3.80;99.90;;;;;;4974756;28;20037;-78
2022/02/25 05:55:58;;;;;;;;;;;3.80;99.90;;;;;;4976577;28;20019;-78
2022/02/25 05:58:24;;;;;;;15.15;4.50;;;3.90;99.90;;;;;;4975392;28;19910;-79
2022/02/25 06:00:49;;;;;;;19.63;6.63;;;3.60;99.90;;;;;;4975430;28;20039;-79
2022/02/25 06:03:15;;;;;;;18.08;5.75;;;3.50;99.90;;;;;;4977233;28;20015;-78
2022/02/25 06:05:41;;;;;;;19.02;6.65;;;3.40;99.90;;;;;;4975777;28;20038;-78
2022/02/25 06:08:07;;;;;;;13.63;4.45;;;3.30;99.90;;;;;;4977338;28;20090;-78
2022/02/25 06:10:32;;;;;;;15.77;4.57;;;3.40;99.90;;;;;;4975151;28;20030;-79
2022/02/25 06:13:00;;;;;;;13.32;6.05;;;3.50;99.90;;;;;;4975072;28;20455;-77
2022/02/25 06:15:25;;;;;;;18.55;5.18;;;3.50;99.90;;;;;;4977176;28;20054;-78
2022/02/25 06:17:52;;;;;;;16.02;5.05;;;3.60;99.90;;;;;;4974623;28;20062;-78
2022/02/25 06:20:18;;;;;;;;;;;3.60;99.90;;;;;;4976579;28;20027;-78
2022/02/25 06:22:44;;;;;;;13.20;3.53;;;3.70;99.90;;;;;;4976777;28;19906;-78
2022/02/25 06:25:10;;;;;;;12.80;4.25;;;4.00;99.90;;;;;;4976751;28;20629;-79
2022/02/25 06:27:39;;;;;;;11.05;4.13;;;4.00;99.90;;;;;;4974692;28;20050;-78
2022/02/25 06:30:07;;;;;;;18.77;4.60;;;4.10;99.70;;;;;;4975842;28;20026;-78
2022/02/25 06:32:33;;;;;;;14.48;4.43;;;4.30;99.40;;;;;;4976201;28;20050;-79
2022/02/25 06:34:59;;;;;;;15.38;4.15;;;4.50;98.50;;;;;;4977204;28;20030;-78
2022/02/25 06:37:26;;;;;;;12.43;4.15;;;5.00;96.90;;;;;;4978943;28;20076;-79
2022/02/25 06:39:51;;;;;;;9.63;4.18;;;5.50;94.50;;;;;;4979501;28;20149;-79
2022/02/25 06:42:17;;;;;;;20.70;5.43;;;6.00;93.00;;;;;;4978935;28;20058;-79
2022/02/25 06:44:43;;;;;;;13.20;6.15;;;6.50;88.60;;;;;;4978928;28;20110;-78
2022/02/25 06:47:08;;;;;;;;;;;7.00;85.60;;;;;;4975817;28;20526;-83
2022/02/25 06:49:35;;;;;;;20.40;9.82;;;7.40;78.20;;;;;;4972268;28;20458;-82
2022/02/25 06:52:01;;;;;;;18.83;9.15;;;7.70;78.10;;;;;;4971289;28;20412;-81
2022/02/25 06:54:26;;;;;;;18.35;7.93;;;8.20;74.50;;;;;;4971032;28;20619;-80
2022/02/25 06:56:52;;;;;;;;;;;8.60;72.00;;;;;;4972317;28;20034;-82
2022/02/25 06:59:18;;;;;;;23.30;7.63;;;9.10;67.30;;;;;;4970121;28;20306;-81
2022/02/25 07:01:43;;;;;;;;;;;9.50;64.90;;;;;;4970509;28;20150;-79
2022/02/25 07:04:09;;;;;;;21.25;10.35;;;10.00;62.10;;;;;;4970561;28;19910;-81
2022/02/25 07:06:38;;;;;;;;;;;10.40;60.90;;;;;;4970541;28;20077;-82
2022/02/25 07:09:05;;;;;;;16.90;6.47;;;10.90;58.80;;;;;;4971355;28;19910;-80
2022/02/25 07:11:31;;;;;;;15.48;5.45;;;11.20;56.50;;;;;;4971107;28;20034;-81
2022/02/25 07:13:57;;;;;;;;;;;11.60;55.20;;;;;;4970193;28;20042;-78
2022/02/25 07:16:22;;;;;;;14.73;4.85;;;11.90;53.20;;;;;;4969802;28;19910;-80
2022/02/25 07:18:48;;;;;;;;;;;12.00;52.60;;;;;;4970169;28;20034;-80
2022/02/25 07:21:13;;;;;;;12.90;5.35;;;12.30;51.70;;;;;;4971021;28;19972;-80
2022/02/25 07:23:39;;;;;;;;;;;12.60;51.50;;;;;;4971371;28;20070;-81
2022/02/25 07:26:07;;;;;;;16.55;5.43;;;12.70;50.00;;;;;;4969615;28;19919;-79
2022/02/25 07:28:33;;;;;;;13.60;5.32;;;12.90;49.60;;;;;;4970312;28;20023;-80
2022/02/25 07:30:58;;;;;;;;;;;12.90;47.80;;;;;;4970782;28;20038;-82
2022/02/25 07:33:24;;;;;;;12.45;5.15;;;12.40;47.70;;;;;;4970587;28;20268;-83
2022/02/25 07:35:50;;;;;;;;;;;11.50;49.10;;;;;;4971420;28;20423;-81
2022/02/25 07:38:15;;;;;;;15.75;6.20;;;10.90;51.00;;;;;;4969259;28;20014;-80
2022/02/25 07:40:41;;;;;;;;;;;10.60;52.30;;;;;;4971129;28;20057;-80
2022/02/25 07:43:07;;;;;;;14.98;6.05;;;10.50;53.10;;;;;;4970674;28;19917;-82
2022/02/25 07:45:34;;;;;;;;;;;10.50;53.60;;;;;;4970947;28;20042;-82
2022/02/25 07:48:00;;;;;;;17.95;6.75;;;10.70;55.00;;;;;;4970684;28;19946;-83
2022/02/25 07:50:26;;;;;;;;;;;11.10;53.50;;;;;;4970066;28;20074;-84
2022/02/25 07:52:52;;;;;;;17.77;6.80;;;11.50;52.80;;;;;;4969425;28;19913;-83
2022/02/25 07:55:18;;;;;;;15.40;6.28;;;11.70;52.10;;;;;;4970810;28;20022;-80
2022/02/25 07:57:44;;;;;;;;;;;12.00;51.70;;;;;;4970792;28;20563;-80
2022/02/25 08:00:12;;;;;;;14.40;5.85;;;12.20;51.10;;;;;;4969625;28;19917;-82
2022/02/25 08:02:38;;;;;;;16.55;6.43;;;12.30;50.40;;;;;;4969304;28;20122;-82
2022/02/25 08:05:04;;;;;;;;;;;12.50;49.40;;;;;;4970579;28;20113;-82
2022/02/25 08:07:32;;;;;;;19.17;6.38;;;12.80;48.50;;;;;;4970359;28;19914;-79
2022/02/25 08:09:58;;;;;;;26.85;6.95;;;12.80;48.00;;;;;;4970382;28;20500;-82
2022/02/25 08:12:24;;;;;;;15.55;6.57;;;12.50;48.80;;;;;;4969127;28;20034;-83
2022/02/25 08:14:50;;;;;;;;;;;12.40;49.00;;;;;;4969422;28;20126;-82
2022/02/25 08:17:15;;;;;;;16.00;7.38;;;12.40;48.80;;;;;;4969143;28;20413;-83
2022/02/25 08:19:41;;;;;;;;;;;12.50;48.70;;;;;;4970435;28;20451;-81
2022/02/25 08:22:07;;;;;;;18.90;6.88;;;12.60;47.90;;;;;;4969883;28;20450;-80
2022/02/25 08:24:32;;;;;;;;;;;12.80;47.70;;;;;;4970257;28;20441;-79
2022/02/25 08:26:58;;;;;;;13.52;6.60;;;13.10;47.10;;;;;;4968694;28;20311;-80
2022/02/25 08:29:23;;;;;;;;;;;13.30;45.60;;;;;;4969086;28;20522;-80
2022/02/25 08:31:51;;;;;;;13.15;7.18;;;13.20;46.20;;;;;;4969832;28;20402;-80
2022/02/25 08:34:19;;;;;;;21.40;6.90;;;13.50;45.80;;;;;;4970029;28;20022;-80
2022/02/25 08:36:44;;;;;;;21.67;7.25;;;13.80;45.40;;;;;;4968638;28;20393;-79
2022/02/25 08:39:10;;;;;;;;;;;13.90;45.20;;;;;;4970178;28;20023;-79
2022/02/25 08:41:36;;;;;;;20.52;8.05;;;14.30;44.40;;;;;;4968328;28;20009;-79
2022/02/25 08:44:02;;;;;;;14.93;6.70;;;14.70;43.20;;;;;;4969748;28;20047;-79
2022/02/25 08:46:29;;;;;;;15.50;6.78;;;15.00;42.00;;;;;;4968458;28;20553;-80
2022/02/25 08:48:56;;;;;;;9.60;5.07;;;15.00;41.70;;;;;;4969903;28;20035;-79
2022/02/25 08:51:22;;;;;;;12.88;4.78;;;14.90;40.90;;;;;;4969609;28;20027;-79
2022/02/25 08:53:47;;;;;;;13.70;5.80;;;15.10;41.20;;;;;;4968270;28;20552;-79
2022/02/25 08:56:13;;;;;;;18.23;6.55;;;15.30;40.80;;;;;;4969381;28;20034;-80
2022/02/25 08:58:39;;;;;;;14.20;6.55;;;15.60;40.30;;;;;;4968422;28;20888;-79
2022/02/25 09:01:04;;;;;;;20.42;6.85;;;16.10;40.10;;;;;;4968281;28;20031;-79
2022/02/25 09:03:30;;;;;;;15.85;6.03;;;16.20;39.00;;;;;;4969518;28;20058;-79
2022/02/25 09:05:56;;;;;;;15.77;6.07;;;16.30;38.70;;;;;;4969236;28;20042;-78
2022/02/25 09:08:22;;;;;;;11.25;5.82;;;15.90;38.20;;;;;;4968299;28;20042;-79
2022/02/25 09:10:49;;;;;;;15.27;6.15;;;15.40;39.10;;;;;;4968294;28;20031;-79
2022/02/25 09:13:15;;;;;;;12.32;5.97;;;15.40;38.70;;;;;;4969610;28;20101;-79
2022/02/25 09:15:41;;;;;;;14.93;5.97;;;15.00;38.70;;;;;;4969215;28;20054;-78
2022/02/25 09:18:10;;;;;;;11.63;5.95;;;15.30;39.90;;;;;;4969187;28;20062;-79
2022/02/25 09:20:37;;;;;;;9.68;5.28;;;15.70;38.70;;;;;;4969490;28;20038;-80
2022/02/25 09:23:03;;;;;;;11.50;5.30;;;15.80;38.60;;;;;;4969441;28;20034;-79
2022/02/25 09:25:29;;;;;;;10.43;4.68;;;15.90;37.70;;;;;;4968050;28;20033;-77
2022/02/25 09:27:56;;;;;;;14.05;5.40;;;16.20;37.00;;;;;;4969326;28;20042;-80
2022/02/25 09:30:22;;;;;;;15.55;5.25;;;16.10;36.80;;;;;;4969373;28;20030;-79
2022/02/25 09:32:48;;;;;;;14.77;5.40;;;16.10;36.40;;;;;;4968356;28;20400;-79
2022/02/25 09:35:14;;;;;;;13.35;6.28;;;16.00;38.20;;;;;;4968118;28;20385;-79
2022/02/25 09:37:40;;;;;;;14.27;5.45;;;16.50;37.30;;;;;;4969099;28;20046;-79
2022/02/25 09:40:09;;;;;;;20.98;6.00;;;16.50;35.70;;;;;;4969182;28;20247;-80
2022/02/25 09:42:37;;;;;;;12.60;5.95;;;16.50;37.10;;;;;;4967934;28;20467;-80
2022/02/25 09:45:04;;;;;;;16.58;5.38;;;17.10;36.70;;;;;;4967534;28;20042;-80
2022/02/25 09:47:30;;;;;;;11.82;5.10;;;17.70;35.30;;;;;;4966999;28;20097;-79
2022/02/25 09:49:56;;;;;;;18.10;5.47;;;18.00;34.80;;;;;;4969180;28;20643;-79
2022/02/25 09:52:22;;;;;;;17.42;6.78;;;18.30;34.00;;;;;;4969581;28;20050;-79
2022/02/25 09:54:48;;;;;;;15.20;6.63;;;18.00;34.40;;;;;;4971223;28;20042;-79
2022/02/25 09:57:14;;;;;;;12.68;6.15;;;18.30;34.10;;;;;;4971031;28;20041;-79
2022/02/25 09:59:39;;;;;;;19.08;6.90;;;18.40;33.70;;;;;;4972349;28;20027;-80
2022/02/25 10:02:07;;;;;;;17.77;7.97;;;18.60;33.10;;;;;;4971170;28;20027;-79
2022/02/25 10:04:33;;;;;;;14.75;5.28;;;18.80;32.60;;;;;;4970886;28;20027;-79
2022/02/25 10:06:59;;;;;;;11.07;5.68;;;18.70;32.70;;;;;;4971940;28;20508;-79
2022/02/25 10:09:31;;;;;;;9.80;4.40;;;18.70;32.90;;;;;;4972083;28;20500;-78
2022/02/25 10:12:09;;;;;;;12.50;4.00;;;18.70;31.80;;;;;;4972130;28;20412;-80
2022/02/25 10:14:44;;;;;;;11.82;4.47;;;19.10;31.60;;;;;;4972220;28;20507;-79
2022/02/25 10:17:20;;;;;;;12.18;4.75;;;18.90;30.10;;;;;;4971059;28;20030;-80
2022/02/25 10:19:55;;;;;;;14.40;4.07;;;18.30;30.40;;;;;;4970766;28;20066;-79
2022/02/25 10:22:29;;;;;;;10.50;5.10;;;17.70;31.20;;;;;;4970757;28;20031;-79
2022/02/25 10:24:57;;;;;;;11.70;4.68;;;16.70;32.80;;;;;;4970830;28;20126;-79
2022/02/25 10:27:27;;;;;;;11.77;4.40;;;16.30;33.50;;;;;;4970570;28;20138;-80
2022/02/25 10:30:02;;;;;;;10.27;4.22;;;15.80;34.30;;;;;;4970608;28;20385;-80
2022/02/25 10:32:29;;;;;;;8.65;4.05;;;15.30;35.30;;;;;;4970734;28;20126;-82
2022/02/25 10:34:54;;;;;;;10.55;4.65;;;14.70;36.40;;;;;;4970805;28;20462;-81
2022/02/25 10:37:20;;;;;;;;;;;14.30;37.90;;;;;;4972517;28;20118;-81
2022/02/25 10:39:47;;;;;;;10.60;4.20;;;13.70;38.90;;;;;;4970740;28;19906;-79
2022/02/25 10:42:19;;;;;;;11.45;3.90;;;13.40;39.60;;;;;;4972235;28;20031;-82
2022/02/25 10:44:51;;;;;;;12.90;4.47;;;13.20;40.60;;;;;;4972037;28;20137;-83
2022/02/25 10:47:23;;;;;;;11.90;4.55;;;12.90;41.30;;;;;;4970721;28;20061;-82
2022/02/25 10:50:05;;;;;;;11.05;4.28;;;12.70;42.00;;;;;;4966598;28;20506;-81
2022/02/25 10:52:40;;;;;;;11.48;4.13;;;12.40;42.50;;;;;;4970695;28;20041;-84
2022/02/25 10:55:14;;;;;;;11.35;4.55;;;12.40;43.10;;;;;;4971963;28;20503;-79
2022/02/25 10:57:40;;;;;;;11.25;4.63;;;12.20;43.60;;;;;;4971341;28;20542;-81
2022/02/25 11:00:11;;;;;;;;;;;12.10;44.40;;;;;;4971184;28;20030;-80
2022/02/25 11:02:47;;;;;;;8.98;4.07;;;11.90;44.30;;;;;;4970767;28;19914;-81
2022/02/25 11:05:19;;;;;;;12.82;3.92;;;12.00;44.70;;;;;;4971375;28;20379;-79
2022/02/25 11:07:50;;;;;;;11.38;4.78;;;11.90;44.50;;;;;;4970003;28;20054;-81
2022/02/25 11:10:19;;;;;;;13.35;4.95;;;11.80;44.80;;;;;;4971497;28;20019;-81
2022/02/25 11:12:46;;;;;;;14.75;5.22;;;11.80;45.50;;;;;;4970100;28;20089;-79
2022/02/25 11:15:16;;;;;;;8.65;3.92;;;11.80;45.70;;;;;;4970391;28;20026;-78
2022/02/25 11:17:44;;;;;;;14.80;4.40;;;11.80;46.40;;;;;;4969980;28;20078;-79
2022/02/25 11:20:10;;;;;;;13.25;5.00;;;11.80;46.20;;;;;;4971386;28;20035;-80
2022/02/25 11:22:41;;;;;;;10.82;3.90;;;11.90;45.70;;;;;;4970143;28;20033;-80
2022/02/25 11:25:17;;;;;;;14.88;4.70;;;11.80;46.30;;;;;;4970903;28;20100;-80
2022/02/25 11:27:46;;;;;;;9.38;4.43;;;11.70;46.10;;;;;;4969459;28;20042;-78
2022/02/25 11:30:23;;;;;;;15.15;4.32;;;11.80;46.80;;;;;;4975473;28;20031;-79
2022/02/25 11:32:54;;;;;;;9.20;4.10;;;11.70;46.80;;;;;;4974360;28;20089;-79
2022/02/25 11:35:22;;;;;;;11.95;4.35;;;11.60;47.10;;;;;;4974721;28;20118;-78
2022/02/25 11:37:50;;;;;;;10.73;3.85;;;11.60;47.20;;;;;;4972665;28;20045;-79
2022/02/25 11:40:17;;;;;;;8.63;3.53;;;11.50;47.80;;;;;;4970151;28;20030;-81
2022/02/25 11:42:47;;;;;;;10.25;3.95;;;11.50;47.90;;;;;;4971544;28;20527;-79
2022/02/25 11:45:16;;;;;;;8.35;4.15;;;11.50;48.10;;;;;;4970726;28;20062;-80
2022/02/25 11:47:49;;;;;;;8.30;3.72;;;11.70;47.30;;;;;;4971100;28;20038;-79
2022/02/25 11:50:36;;;;;;;7.70;3.47;;;11.70;47.20;;;;;;4971891;28;20031;-80
2022/02/25 11:53:16;;;;;;;9.35;3.85;;;11.70;47.10;;;;;;4974598;28;20049;-79
2022/02/25 11:55:44;;;;;;;7.97;3.58;;;11.60;46.60;;;;;;4970788;28;20125;-78
2022/02/25 11:58:49;;;;;;;9.00;4.20;;;11.50;47.10;;;;;;4970379;28;20833;-80
2022/02/25 12:01:20;;;;;;;10.25;3.90;;;11.40;48.10;;;;;;4974605;28;20098;-79
2022/02/25 12:04:06;;;;;;;8.57;3.75;;;11.40;47.50;;;;;;4970789;28;20030;-80
2022/02/25 12:06:57;;;;;;;9.80;3.47;;;11.30;48.20;;;;;;4970598;28;20118;-78
2022/02/25 12:09:54;;;;;;;9.20;3.80;;;11.30;48.10;;;;;;4969358;28;20058;-82
2022/02/25 12:12:23;;;;;;;6.97;2.85;;;11.30;48.40;;;;;;4969246;28;20026;-80
2022/02/25 12:15:12;;;;;;;5.80;2.78;;;11.40;48.10;;;;;;4970424;28;20026;-81
2022/02/25 12:17:43;;;;;;;10.98;3.70;;;11.60;47.70;;;;;;4969335;28;20142;-79
2022/02/25 12:20:09;;;;;;;10.75;3.88;;;11.40;47.60;;;;;;4969411;28;20035;-83
2022/02/25 12:22:47;;;;;;;;;;;11.50;47.30;;;;;;4970863;28;20385;-81
2022/02/25 12:25:13;;;;;;;6.55;3.00;;;11.60;46.50;;;;;;4969129;28;19910;-79
2022/02/25 12:27:39;;;;;;;7.10;2.88;;;11.60;46.20;;;;;;4970213;28;20423;-81
2022/02/25 12:30:24;;;;;;;6.05;2.92;;;11.40;46.40;;;;;;4970517;28;20458;-84
2022/02/25 12:32:52;;;;;;;8.32;2.95;;;11.40;46.70;;;;;;4969177;28;20031;-80
2022/02/25 12:35:44;;;;;;;4.38;2.03;;;11.20;46.90;;;;;;4969184;28;20030;-81
2022/02/25 12:38:11;;;;;;;12.32;2.03;;;11.40;45.20;;;;;;4971207;28;20574;-80
2022/02/25 12:40:37;;;;;;;5.25;2.10;;;11.20;45.30;;;;;;4969261;28;20031;-80
2022/02/25 12:43:06;;;;;;;;;;;11.10;45.90;;;;;;4971163;28;20174;-82
2022/02/25 12:45:31;;;;;;;6.90;2.63;;;11.10;46.40;;;;;;4968872;28;19932;-80
2022/02/25 12:47:58;;;;;;;;;;;11.30;46.80;;;;;;4969759;28;20047;-80
2022/02/25 12:50:23;;;;;;;5.32;1.90;;;11.30;45.70;;;;;;4971294;28;20374;-79
2022/02/25 12:52:49;;;;;;;;;;;11.30;45.60;;;;;;4971105;28;20130;-80
2022/02/25 12:55:16;;;;;;;7.85;3.10;;;11.10;45.80;;;;;;4969302;28;19957;-80
2022/02/25 12:57:42;;;;;;;8.68;3.58;;;11.00;46.30;;;;;;4970418;28;20034;-79
2022/02/25 13:00:10;;;;;;;9.38;3.88;;;10.90;46.60;;;;;;4971260;28;20593;-80
2022/02/25 13:02:36;;;;;;;10.45;4.18;;;10.70;47.00;;;;;;4969403;28;20403;-80
2022/02/25 13:05:01;;;;;;;;;;;10.60;47.30;;;;;;4969659;28;20043;-80
2022/02/25 13:07:27;;;;;;;7.90;2.88;;;10.70;47.60;;;;;;4968780;28;20362;-78
2022/02/25 13:09:53;;;;;;;;;;;10.70;47.40;;;;;;4969120;28;20921;-80